createdAt,value
2022-10-14T00:01:24.161Z,101058.66
2022-10-14T00:04:03.307Z,101044.75
2022-10-14T00:06:42.271Z,101046.00
2022-10-14T00:09:21.257Z,101048.00
2022-10-14T00:11:59.399Z,101047.91
2022-10-14T00:14:39.167Z,101048.09
2022-10-14T00:17:17.424Z,101052.09
2022-10-14T00:19:57.269Z,101051.66
2022-10-14T00:22:35.612Z,101054.31
2022-10-14T00:25:13.616Z,101052.47
2022-10-14T00:27:52.568Z,101049.38
2022-10-14T00:30:31.744Z,101048.16
2022-10-14T00:33:11.455Z,101047.25
2022-10-14T00:35:56.727Z,101044.38
2022-10-14T00:38:39.134Z,101047.16
2022-10-14T00:41:23.746Z,101036.81
2022-10-14T00:44:24.891Z,101041.22
2022-10-14T00:47:07.070Z,101037.19
2022-10-14T00:49:45.853Z,101030.38
2022-10-14T00:52:25.338Z,101029.56
2022-10-14T00:55:15.928Z,101017.38
2022-10-14T00:57:54.786Z,101014.22
2022-10-14T01:00:32.809Z,101017.19
2022-10-14T01:03:21.631Z,101014.84
2022-10-14T01:06:07.557Z,101004.38
2022-10-14T01:09:05.393Z,101005.81
2022-10-14T01:11:46.816Z,100997.84
2022-10-14T01:14:41.514Z,100998.88
2022-10-14T01:17:27.031Z,101000.22
2022-10-14T01:20:42.368Z,101003.06
2022-10-14T01:23:42.310Z,100993.94
2022-10-14T01:26:54.008Z,100981.78
2022-10-14T01:30:10.511Z,100993.75
2022-10-14T01:32:58.763Z,100995.66
2022-10-14T01:36:02.909Z,100991.06
2022-10-14T01:38:58.724Z,100981.38
2022-10-14T01:41:45.828Z,100974.69
2022-10-14T01:44:28.283Z,100977.75
2022-10-14T01:47:09.085Z,100982.22
2022-10-14T01:49:53.979Z,100987.44
2022-10-14T01:52:39.821Z,100976.50
2022-10-14T01:55:23.578Z,100980.06
2022-10-14T01:58:03.164Z,100978.16
2022-10-14T02:00:41.357Z,100984.25
2022-10-14T02:03:19.553Z,100982.63
2022-10-14T02:06:08.237Z,100971.59
2022-10-14T02:09:12.041Z,100970.75
2022-10-14T02:12:22.305Z,100969.34
2022-10-14T02:15:24.156Z,100956.69
2022-10-14T02:18:06.969Z,100961.69
2022-10-14T02:20:47.677Z,100958.72
2022-10-14T02:23:32.834Z,100954.41
2022-10-14T02:26:11.532Z,100963.19
2022-10-14T02:28:51.877Z,100956.94
2022-10-14T02:31:32.666Z,100960.81
2022-10-14T02:34:14.864Z,100955.59
2022-10-14T02:36:55.317Z,100957.53
2022-10-14T02:39:48.195Z,100943.84
2022-10-14T02:42:28.323Z,100948.22
2022-10-14T02:45:09.382Z,100944.34
2022-10-14T02:47:48.304Z,100946.81
2022-10-14T02:50:26.616Z,100948.53
2022-10-14T02:53:05.162Z,100952.94
2022-10-14T02:55:43.104Z,100955.38
2022-10-14T02:58:21.133Z,100942.66
2022-10-14T03:01:00.904Z,100953.38
2022-10-14T03:03:40.756Z,100944.34
2022-10-14T03:06:18.943Z,100952.13
2022-10-14T03:08:58.695Z,100955.56
2022-10-14T03:11:38.497Z,100963.28
2022-10-14T03:14:19.979Z,100962.69
2022-10-14T03:16:59.765Z,100968.53
2022-10-14T03:19:44.392Z,100968.00
2022-10-14T03:22:24.463Z,100963.28
2022-10-14T03:25:04.156Z,100953.16
2022-10-14T03:27:52.370Z,100950.16
2022-10-14T03:30:34.758Z,100945.25
2022-10-14T03:33:22.129Z,100955.06
2022-10-14T03:36:12.325Z,100953.44
2022-10-14T03:38:58.173Z,100951.22
2022-10-14T03:41:50.734Z,100956.81
2022-10-14T03:44:33.734Z,100952.41
2022-10-14T03:47:24.892Z,100950.75
2022-10-14T03:50:05.112Z,100948.75
2022-10-14T03:53:03.570Z,100947.50
2022-10-14T03:55:46.598Z,100942.41
2022-10-14T03:58:27.084Z,100957.09
2022-10-14T04:01:12.578Z,100945.84
2022-10-14T04:04:24.375Z,100948.06
2022-10-14T04:07:02.562Z,100943.19
2022-10-14T04:09:40.778Z,100944.28
2022-10-14T04:12:20.789Z,100948.16
2022-10-14T04:15:11.546Z,100937.22
2022-10-14T04:18:08.956Z,100945.19
2022-10-14T04:20:48.957Z,100940.72
2022-10-14T04:23:30.177Z,100949.13
2022-10-14T04:26:14.804Z,100957.19
2022-10-14T04:28:56.221Z,100956.34
2022-10-14T04:31:45.891Z,100942.97
2022-10-14T04:34:23.804Z,100943.75
2022-10-14T04:37:03.608Z,100930.97
2022-10-14T04:40:05.402Z,100939.16
2022-10-14T04:42:47.235Z,100935.06
2022-10-14T04:45:33.362Z,100934.63
2022-10-14T04:48:13.456Z,100941.00
2022-10-14T04:50:54.830Z,100937.22
2022-10-14T04:53:53.870Z,100949.94
2022-10-14T04:56:55.874Z,100935.97
2022-10-14T04:59:34.577Z,100932.75
2022-10-14T05:02:29.838Z,100931.09
2022-10-14T05:05:11.272Z,100943.53
2022-10-14T05:07:52.635Z,100940.56
2022-10-14T05:10:49.087Z,100942.81
2022-10-14T05:13:39.534Z,100941.19
2022-10-14T05:16:20.841Z,100941.69
2022-10-14T05:18:59.053Z,100943.38
2022-10-14T05:21:39.178Z,100939.59
2022-10-14T05:24:25.070Z,100941.25
2022-10-14T05:27:03.327Z,100941.25
2022-10-14T05:29:43.038Z,100939.59
2022-10-14T05:32:21.660Z,100942.66
2022-10-14T05:35:03.087Z,100938.78
2022-10-14T05:37:47.219Z,100942.28
2022-10-14T05:40:29.284Z,100944.50
2022-10-14T05:43:08.440Z,100932.97
2022-10-14T05:45:49.822Z,100944.88
2022-10-14T05:48:28.210Z,100941.53
2022-10-14T05:51:08.159Z,100935.81
2022-10-14T05:53:48.244Z,100928.75
2022-10-14T05:56:30.780Z,100933.44
2022-10-14T05:59:10.453Z,100932.31
2022-10-14T06:01:48.643Z,100931.44
2022-10-14T06:04:27.179Z,100933.22
2022-10-14T06:07:07.198Z,100935.97
2022-10-14T06:09:48.256Z,100935.34
2022-10-14T06:12:26.790Z,100937.91
2022-10-14T06:15:17.960Z,100946.00
2022-10-14T06:17:56.258Z,100954.19
2022-10-14T06:20:36.270Z,100951.19
2022-10-14T06:23:14.146Z,100950.19
2022-10-14T06:25:52.730Z,100953.97
2022-10-14T06:28:31.019Z,100963.59
2022-10-14T06:31:10.259Z,100954.50
2022-10-14T06:33:48.463Z,100956.06
2022-10-14T06:36:27.008Z,100953.31
2022-10-14T06:39:05.405Z,100944.75
2022-10-14T06:41:43.171Z,100940.22
2022-10-14T06:44:31.652Z,100953.50
2022-10-14T06:47:12.717Z,100957.47
2022-10-14T06:49:51.302Z,100962.50
2022-10-14T06:52:30.374Z,100963.56
2022-10-14T06:55:08.586Z,100971.31
2022-10-14T06:57:46.752Z,100966.66
2022-10-14T07:00:23.630Z,100968.38
2022-10-14T07:03:01.573Z,100964.63
2022-10-14T07:05:41.847Z,100976.41
2022-10-14T07:08:23.369Z,100972.00
2022-10-14T07:11:03.176Z,100975.59
2022-10-14T07:13:42.619Z,100979.03
2022-10-14T07:16:24.064Z,100976.13
2022-10-14T07:19:01.882Z,100980.09
2022-10-14T07:21:40.170Z,100964.38
2022-10-14T07:24:20.928Z,100961.78
2022-10-14T07:27:00.026Z,100963.41
2022-10-14T07:29:38.252Z,100975.31
2022-10-14T07:32:16.198Z,100963.75
2022-10-14T07:34:54.465Z,100966.53
2022-10-14T07:37:32.621Z,100965.72
2022-10-14T07:40:11.860Z,100974.38
2022-10-14T07:42:50.650Z,100976.72
2022-10-14T07:45:35.149Z,100977.38
2022-10-14T07:48:13.424Z,100974.59
2022-10-14T07:50:51.662Z,100977.38
2022-10-14T07:53:29.878Z,100985.66
2022-10-14T07:56:09.977Z,100979.31
2022-10-14T07:58:48.949Z,100978.59
2022-10-14T08:01:27.731Z,100990.25
2022-10-14T08:04:05.793Z,100995.28
2022-10-14T08:06:46.858Z,100982.25
2022-10-14T08:12:04.199Z,100993.75
2022-10-14T08:14:43.484Z,101004.03
2022-10-14T08:17:21.801Z,101005.16
2022-10-14T08:19:59.973Z,101004.75
2022-10-14T08:22:38.071Z,101006.38
2022-10-14T08:25:14.819Z,101010.59
2022-10-14T08:27:57.792Z,101008.16
2022-10-14T08:30:37.935Z,101010.00
2022-10-14T08:33:17.288Z,101006.66
2022-10-14T08:35:55.462Z,101002.25
2022-10-14T08:38:33.652Z,101006.88
2022-10-14T08:41:14.969Z,101011.06
2022-10-14T08:44:08.311Z,101008.28
2022-10-14T08:47:10.945Z,101010.47
2022-10-14T08:50:17.841Z,101021.75
2022-10-14T08:53:03.467Z,101013.63
2022-10-14T08:55:45.845Z,101017.69
2022-10-14T08:58:39.887Z,101014.91
2022-10-14T09:01:39.821Z,101028.69
2022-10-14T09:04:20.031Z,101021.50
2022-10-14T09:07:00.256Z,101023.91
2022-10-14T09:09:43.676Z,101018.94
2022-10-14T09:12:26.453Z,101022.53
2022-10-14T09:15:28.448Z,101017.72
2022-10-14T09:18:32.484Z,101017.63
2022-10-14T09:21:52.090Z,101016.09
2022-10-14T09:24:38.286Z,101009.81
2022-10-14T09:27:23.339Z,101006.97
2022-10-14T09:30:10.419Z,101008.75
2022-10-14T09:32:52.686Z,101007.06
2022-10-14T09:35:35.449Z,101003.41
2022-10-14T09:38:14.398Z,101004.13
2022-10-14T09:40:58.625Z,100994.25
2022-10-14T09:46:18.088Z,100996.78
2022-10-14T09:48:56.768Z,100998.31
2022-10-14T09:51:35.714Z,100998.03
2022-10-14T09:54:26.691Z,101005.34
2022-10-14T09:57:08.990Z,101002.47
2022-10-14T09:59:55.561Z,100994.69
2022-10-14T10:02:42.327Z,100990.28
2022-10-14T10:05:32.405Z,100992.38
2022-10-14T10:08:14.303Z,100986.06
2022-10-14T10:11:14.016Z,100988.94
2022-10-14T10:13:53.488Z,100994.69
2022-10-14T10:16:32.994Z,100988.59
2022-10-14T10:19:44.974Z,100977.47
2022-10-14T10:22:28.316Z,100982.59
2022-10-14T10:25:09.098Z,100970.84
2022-10-14T10:27:49.570Z,100966.88
2022-10-14T10:30:35.779Z,100963.84
2022-10-14T10:33:28.469Z,100961.34
2022-10-14T10:36:29.162Z,100968.47
2022-10-14T10:39:31.807Z,100957.84
2022-10-14T10:42:22.598Z,100955.38
2022-10-14T10:45:16.253Z,100953.97
2022-10-14T10:48:08.281Z,100953.41
2022-10-14T10:51:08.027Z,100951.59
2022-10-14T10:54:16.046Z,100950.34
2022-10-14T10:56:59.346Z,100951.47
2022-10-14T10:59:55.585Z,100951.22
2022-10-14T11:03:10.163Z,100941.81
2022-10-14T11:06:53.748Z,100921.50
2022-10-14T11:10:07.236Z,100914.88
2022-10-14T11:13:12.144Z,100919.00
2022-10-14T11:16:07.744Z,100914.53
2022-10-14T11:19:14.618Z,100913.63
2022-10-14T11:22:11.953Z,100910.72
2022-10-14T11:25:06.970Z,100911.09
2022-10-14T11:28:13.602Z,100898.03
2022-10-14T11:31:14.316Z,100904.50
2022-10-14T11:34:19.418Z,100890.31
2022-10-14T11:37:47.455Z,100898.91
2022-10-14T11:40:39.783Z,100899.28
2022-10-14T11:43:45.468Z,100887.09
2022-10-14T11:46:29.273Z,100889.53
2022-10-14T11:49:16.152Z,100885.25
2022-10-14T11:52:03.203Z,100879.97
2022-10-14T11:54:54.313Z,100871.59
2022-10-14T11:58:16.125Z,100881.44
2022-10-14T12:01:09.330Z,100878.81
2022-10-14T12:04:05.285Z,100881.75
2022-10-14T12:06:52.016Z,100866.53
2022-10-14T12:09:39.658Z,100868.72
2022-10-14T12:12:44.719Z,100862.22
2022-10-14T12:15:27.389Z,100857.34
2022-10-14T12:18:10.787Z,100856.03
2022-10-14T12:21:02.417Z,100862.78
2022-10-14T12:23:49.186Z,100857.84
2022-10-14T12:26:50.229Z,100854.50
2022-10-14T12:29:36.386Z,100843.63
2022-10-14T12:32:32.248Z,100846.56
2022-10-14T12:35:50.921Z,100841.19
2022-10-14T12:38:30.851Z,100844.44
2022-10-14T12:41:37.843Z,100857.25
2022-10-14T12:44:19.785Z,100841.84
2022-10-14T12:46:58.632Z,100839.69
2022-10-14T12:49:37.869Z,100837.47
2022-10-14T12:52:28.431Z,100826.91
2022-10-14T12:55:17.927Z,100828.94
2022-10-14T12:58:02.529Z,100817.69
2022-10-14T13:00:43.147Z,100825.44
2022-10-14T13:03:27.353Z,100819.97
2022-10-14T13:06:32.791Z,100820.47
2022-10-14T13:09:15.551Z,100815.63
2022-10-14T13:12:11.437Z,100807.81
2022-10-14T13:15:02.325Z,100810.25
2022-10-14T13:17:46.221Z,100811.25
2022-10-14T13:20:34.634Z,100810.03
2022-10-14T13:23:43.979Z,100815.56
2022-10-14T13:26:23.267Z,100816.75
2022-10-14T13:29:32.644Z,100812.06
2022-10-14T13:32:49.540Z,100806.91
2022-10-14T13:35:49.047Z,100810.06
2022-10-14T13:38:28.408Z,100807.94
2022-10-14T13:41:17.287Z,100803.69
2022-10-14T13:44:00.088Z,100799.91
2022-10-14T13:46:45.831Z,100796.69
2022-10-14T13:49:36.100Z,100792.66
2022-10-14T13:52:25.827Z,100793.41
2022-10-14T13:55:21.000Z,100787.22
2022-10-14T13:58:18.387Z,100780.94
2022-10-14T14:01:01.032Z,100773.72
2022-10-14T14:03:46.999Z,100777.84
2022-10-14T14:06:35.868Z,100782.53
2022-10-14T14:09:26.718Z,100783.78
2022-10-14T14:12:05.700Z,100787.97
2022-10-14T14:14:44.250Z,100784.34
2022-10-14T14:17:25.137Z,100776.88
2022-10-14T14:20:11.389Z,100779.09
2022-10-14T14:22:50.331Z,100773.09
2022-10-14T14:25:36.732Z,100768.97
2022-10-14T14:28:31.552Z,100772.56
2022-10-14T14:31:30.330Z,100776.28
2022-10-14T14:34:19.749Z,100763.41
2022-10-14T14:37:06.033Z,100757.63
2022-10-14T14:40:00.828Z,100749.06
2022-10-14T14:42:40.835Z,100761.22
2022-10-14T14:45:26.147Z,100754.84
2022-10-14T14:48:07.671Z,100759.53
2022-10-14T14:50:48.934Z,100753.13
2022-10-14T14:53:30.060Z,100752.97
2022-10-14T14:56:18.627Z,100748.09
2022-10-14T14:59:06.716Z,100744.69
2022-10-14T15:01:44.990Z,100736.31
2022-10-14T15:04:26.548Z,100751.16
2022-10-14T15:07:21.681Z,100751.72
2022-10-14T15:10:25.442Z,100748.28
2022-10-14T15:13:05.686Z,100741.53
2022-10-14T15:15:53.766Z,100754.31
2022-10-14T15:18:32.199Z,100754.59
2022-10-14T15:21:16.283Z,100745.41
2022-10-14T15:23:56.175Z,100751.59
2022-10-14T15:26:36.086Z,100746.75
2022-10-14T15:32:01.742Z,100752.34
2022-10-14T15:34:40.656Z,100742.16
2022-10-14T15:37:19.964Z,100747.72
2022-10-14T15:40:04.718Z,100754.13
2022-10-14T15:42:43.713Z,100750.34
2022-10-14T15:45:25.072Z,100743.06
2022-10-14T15:48:07.980Z,100752.19
2022-10-14T15:50:48.209Z,100742.94
2022-10-14T15:53:27.080Z,100745.97
2022-10-14T15:56:06.967Z,100755.03
2022-10-14T15:58:46.325Z,100752.97
2022-10-14T16:01:24.645Z,100753.31
2022-10-14T16:04:03.948Z,100755.56
2022-10-14T16:06:56.580Z,100753.72
2022-10-14T16:09:34.330Z,100758.03
2022-10-14T16:12:16.235Z,100755.88
2022-10-14T16:14:55.423Z,100755.69
2022-10-14T16:17:33.537Z,100753.50
2022-10-14T16:20:12.063Z,100767.53
2022-10-14T16:22:50.332Z,100763.81
2022-10-14T16:25:38.998Z,100773.34
2022-10-14T16:28:18.943Z,100771.50
2022-10-14T16:30:59.366Z,100780.09
2022-10-14T16:33:40.529Z,100781.47
2022-10-14T16:36:23.460Z,100777.22
2022-10-14T16:39:01.887Z,100777.78
2022-10-14T16:41:39.881Z,100779.66
2022-10-14T16:44:27.692Z,100781.97
2022-10-14T16:47:19.826Z,100784.97
2022-10-14T16:49:59.916Z,100780.34
2022-10-14T16:53:00.881Z,100785.69
2022-10-14T16:55:45.006Z,100788.91
2022-10-14T16:58:23.659Z,100794.63
2022-10-14T17:01:04.111Z,100796.59
2022-10-14T17:03:44.602Z,100818.28
2022-10-14T17:06:24.375Z,100817.00
2022-10-14T17:09:04.957Z,100816.53
2022-10-14T17:11:44.804Z,100817.22
2022-10-14T17:14:24.387Z,100818.06
2022-10-14T17:17:04.179Z,100801.00
2022-10-14T17:19:44.598Z,100808.09
2022-10-14T17:22:24.117Z,100804.97
2022-10-14T17:25:03.014Z,100803.94
2022-10-14T17:27:41.441Z,100809.59
2022-10-14T17:30:31.883Z,100812.50
2022-10-14T17:33:10.959Z,100822.13
2022-10-14T17:35:57.069Z,100827.69
2022-10-14T17:38:36.450Z,100840.09
2022-10-14T17:41:18.415Z,100839.28
2022-10-14T17:43:58.543Z,100845.66
2022-10-14T17:46:37.247Z,100843.69
2022-10-14T17:49:16.208Z,100847.75
2022-10-14T17:51:54.388Z,100832.22
2022-10-14T17:54:32.595Z,100832.09
2022-10-14T17:57:10.791Z,100836.72
2022-10-14T17:59:50.998Z,100836.00
2022-10-14T18:02:30.541Z,100839.03
2022-10-14T18:05:08.974Z,100843.34
2022-10-14T18:07:48.421Z,100842.06
2022-10-14T18:10:26.633Z,100835.31
2022-10-14T18:13:05.350Z,100835.66
2022-10-14T18:15:46.670Z,100834.38
2022-10-14T18:18:39.591Z,100842.06
2022-10-14T18:21:17.871Z,100844.38
2022-10-14T18:23:57.507Z,100851.31
2022-10-14T18:26:35.562Z,100841.97
2022-10-14T18:29:13.762Z,100847.06
2022-10-14T18:34:38.699Z,100845.25
2022-10-14T18:37:18.013Z,100851.91
2022-10-14T18:39:56.315Z,100849.00
2022-10-14T18:42:34.553Z,100853.41
2022-10-14T18:45:12.761Z,100845.81
2022-10-14T18:47:51.284Z,100854.66
2022-10-14T18:50:30.884Z,100849.59
2022-10-14T18:53:08.908Z,100858.84
2022-10-14T18:55:47.075Z,100855.47
2022-10-14T18:58:26.156Z,100848.28
2022-10-14T19:01:06.650Z,100856.38
2022-10-14T19:03:44.920Z,100842.47
2022-10-14T19:06:23.906Z,100842.38
2022-10-14T19:09:03.972Z,100837.13
2022-10-14T19:11:42.746Z,100831.75
2022-10-14T19:14:22.597Z,100837.88
2022-10-14T19:17:00.624Z,100836.81
2022-10-14T19:19:39.642Z,100842.09
2022-10-14T19:22:18.693Z,100843.16
2022-10-14T19:24:57.076Z,100837.47
2022-10-14T19:27:35.019Z,100842.25
2022-10-14T19:30:13.293Z,100844.72
2022-10-14T19:32:51.491Z,100843.16
2022-10-14T19:35:29.638Z,100853.47
2022-10-14T19:38:08.164Z,100847.34
2022-10-14T19:40:46.199Z,100852.88
2022-10-14T19:43:24.257Z,100847.06
2022-10-14T19:46:10.999Z,100853.97
2022-10-14T19:48:50.983Z,100856.66
2022-10-14T19:51:30.960Z,100852.63
2022-10-14T19:54:13.110Z,100851.66
2022-10-14T19:56:55.551Z,100848.69
2022-10-14T19:59:42.899Z,100846.38
2022-10-14T20:02:31.677Z,100848.22
2022-10-14T20:05:20.253Z,100855.19
2022-10-14T20:08:05.315Z,100856.75
2022-10-14T20:10:51.339Z,100863.78
2022-10-14T20:13:39.164Z,100857.78
2022-10-14T20:16:24.458Z,100859.91
2022-10-14T20:19:09.779Z,100863.03
2022-10-14T20:21:55.312Z,100868.59
2022-10-14T20:24:41.721Z,100863.53
2022-10-14T20:27:27.492Z,100865.97
2022-10-14T20:30:12.868Z,100852.13
2022-10-14T20:32:55.885Z,100850.16
2022-10-14T20:35:35.521Z,100852.28
2022-10-14T20:38:15.750Z,100856.53
2022-10-14T20:40:56.026Z,100856.66
2022-10-14T20:43:34.510Z,100851.78
2022-10-14T20:46:25.569Z,100861.38
2022-10-14T20:49:04.385Z,100863.00
2022-10-14T20:51:43.472Z,100868.34
2022-10-14T20:54:22.225Z,100865.41
2022-10-14T20:57:03.388Z,100868.81
2022-10-14T20:59:44.464Z,100871.41
2022-10-14T21:02:25.909Z,100875.78
2022-10-14T21:05:06.080Z,100884.25
2022-10-14T21:07:45.855Z,100880.84
2022-10-14T21:10:27.376Z,100882.75
2022-10-14T21:13:08.345Z,100877.03
2022-10-14T21:15:46.512Z,100868.09
2022-10-14T21:18:24.790Z,100878.16
2022-10-14T21:21:02.681Z,100883.81
2022-10-14T21:23:40.950Z,100879.78
2022-10-14T21:26:19.093Z,100889.34
2022-10-14T21:28:57.587Z,100887.25
2022-10-14T21:31:35.867Z,100894.41
2022-10-14T21:34:14.353Z,100899.38
2022-10-14T21:36:53.489Z,100903.28
2022-10-14T21:39:30.430Z,100900.66
2022-10-14T21:42:07.077Z,100892.81
2022-10-14T21:44:43.664Z,100901.75
2022-10-14T21:47:20.452Z,100908.16
2022-10-14T21:49:58.465Z,100905.34
2022-10-14T21:52:35.321Z,100908.53
2022-10-14T21:55:13.328Z,100900.25
2022-10-14T21:57:51.529Z,100907.78
2022-10-14T22:00:28.184Z,100906.97
2022-10-14T22:03:06.331Z,100895.25
2022-10-14T22:05:44.733Z,100901.13
2022-10-14T22:08:24.034Z,100904.38
2022-10-14T22:11:01.238Z,100902.25
2022-10-14T22:13:39.108Z,100902.03
2022-10-14T22:16:19.487Z,100888.97
2022-10-14T22:18:59.769Z,100883.66
2022-10-14T22:21:38.378Z,100891.25
2022-10-14T22:24:16.121Z,100889.41
2022-10-14T22:26:53.469Z,100883.25
2022-10-14T22:29:33.497Z,100886.09
2022-10-14T22:32:11.295Z,100888.03
2022-10-14T22:34:48.050Z,100890.00
2022-10-14T22:37:26.158Z,100890.00
2022-10-14T22:40:04.819Z,100887.44
2022-10-14T22:42:49.024Z,100885.81
2022-10-14T22:45:28.793Z,100885.47
2022-10-14T22:48:07.951Z,100878.88
2022-10-14T22:50:45.114Z,100879.00
2022-10-14T22:53:21.867Z,100879.06
2022-10-14T22:56:00.373Z,100876.66
2022-10-14T22:58:38.192Z,100869.66
2022-10-14T23:01:17.272Z,100875.28
2022-10-14T23:03:58.288Z,100869.47
2022-10-14T23:06:36.417Z,100864.69
2022-10-14T23:09:14.372Z,100874.44
2022-10-14T23:11:52.461Z,100861.56
2022-10-14T23:14:31.072Z,100868.72
2022-10-14T23:17:09.712Z,100868.53
2022-10-14T23:19:46.993Z,100862.38
2022-10-14T23:22:24.508Z,100865.31
2022-10-14T23:25:01.732Z,100870.34
2022-10-14T23:27:39.026Z,100868.69
2022-10-14T23:30:16.811Z,100868.44
2022-10-14T23:32:54.795Z,100866.16
2022-10-14T23:35:35.452Z,100877.06
2022-10-14T23:38:13.558Z,100894.63
2022-10-14T23:40:50.954Z,100891.25
2022-10-14T23:43:28.055Z,100887.53
2022-10-14T23:46:06.914Z,100886.03
2022-10-14T23:48:51.376Z,100883.56
2022-10-14T23:51:38.169Z,100866.16
2022-10-14T23:54:15.314Z,100873.47
2022-10-14T23:56:53.148Z,100856.31
2022-10-14T23:59:33.205Z,100847.72
